createdAt,value
2023-03-11T00:00:38.244Z,13.10
2023-03-11T00:03:06.241Z,16.70
2023-03-11T00:05:37.931Z,16.70
2023-03-11T00:08:14.761Z,15.60
2023-03-11T00:10:43.153Z,15.40
2023-03-11T00:13:13.044Z,16.40
2023-03-11T00:15:40.273Z,16.80
2023-03-11T00:18:07.532Z,16.70
2023-03-11T00:20:37.138Z,17.60
2023-03-11T00:23:05.358Z,16.00
2023-03-11T00:25:33.791Z,16.00
2023-03-11T00:28:01.193Z,17.60
2023-03-11T00:30:29.883Z,18.00
2023-03-11T00:32:58.665Z,16.90
2023-03-11T00:35:30.840Z,15.40
2023-03-11T00:38:00.063Z,17.20
2023-03-11T00:40:28.786Z,17.40
2023-03-11T00:42:56.058Z,16.50
2023-03-11T00:45:23.795Z,17.50
2023-03-11T00:47:56.300Z,18.60
2023-03-11T00:50:31.815Z,17.30
2023-03-11T00:52:58.889Z,17.20
2023-03-11T00:55:31.447Z,17.70
2023-03-11T00:58:01.763Z,17.90
2023-03-11T01:00:34.740Z,17.70
2023-03-11T01:03:03.458Z,19.00
2023-03-11T01:05:33.092Z,20.50
2023-03-11T01:08:01.936Z,18.00
2023-03-11T01:10:34.512Z,20.80
2023-03-11T01:13:02.509Z,20.40
2023-03-11T01:15:35.182Z,17.10
2023-03-11T01:18:02.565Z,17.30
2023-03-11T01:20:31.809Z,17.10
2023-03-11T01:22:58.856Z,19.00
2023-03-11T01:25:25.914Z,19.90
2023-03-11T01:27:53.667Z,19.00
2023-03-11T01:30:22.494Z,16.60
2023-03-11T01:32:53.085Z,18.60
2023-03-11T01:35:22.055Z,20.80
2023-03-11T01:37:51.007Z,19.00
2023-03-11T01:40:27.760Z,20.30
2023-03-11T01:43:00.501Z,18.70
2023-03-11T01:45:50.707Z,17.30
2023-03-11T01:48:21.679Z,19.90
2023-03-11T01:50:50.066Z,20.70
2023-03-11T01:53:17.398Z,19.40
2023-03-11T01:55:45.707Z,19.50
2023-03-11T01:58:16.388Z,18.80
2023-03-11T02:00:43.538Z,18.90
2023-03-11T02:03:27.173Z,19.80
2023-03-11T02:05:54.776Z,23.00
2023-03-11T02:08:22.202Z,21.20
2023-03-11T09:01:30.237Z,21.60
2023-03-11T09:03:58.292Z,19.30
2023-03-11T09:12:56.997Z,19.30
2023-03-11T09:15:31.184Z,18.60
2023-03-11T09:17:59.319Z,20.00
2023-03-11T09:20:31.776Z,22.60
2023-03-11T09:22:58.820Z,20.20
2023-03-11T09:25:25.443Z,20.90
2023-03-11T09:27:52.942Z,20.10
2023-03-11T09:30:19.787Z,18.60
2023-03-11T09:32:48.771Z,19.20
2023-03-11T09:35:17.112Z,18.20
2023-03-11T09:37:44.042Z,16.90
2023-03-11T09:40:17.095Z,17.80
2023-03-11T09:43:06.839Z,20.80
2023-03-11T09:45:36.068Z,18.80
2023-03-11T09:48:11.992Z,19.00
2023-03-11T09:50:48.548Z,17.80
2023-03-11T09:53:22.820Z,18.70
2023-03-11T09:55:50.798Z,17.60
2023-03-11T09:58:39.784Z,18.30
2023-03-11T10:01:17.840Z,21.70
2023-03-11T10:03:45.047Z,20.20
2023-03-11T10:06:17.050Z,19.90
2023-03-11T10:08:54.404Z,19.00
2023-03-11T10:11:29.534Z,21.90
2023-03-11T10:14:28.662Z,18.70
2023-03-11T10:17:02.904Z,20.00
2023-03-11T10:19:32.800Z,18.70
2023-03-11T10:21:59.862Z,19.90
2023-03-11T10:24:48.810Z,19.10
2023-03-11T10:27:33.023Z,20.90
2023-03-11T10:30:23.475Z,19.80
2023-03-11T10:32:58.937Z,19.60
2023-03-11T10:35:43.131Z,21.70
2023-03-11T10:38:15.171Z,20.20
2023-03-11T10:40:45.612Z,22.40
2023-03-11T10:43:22.104Z,21.40
2023-03-11T10:45:53.061Z,21.80
2023-03-11T10:48:21.106Z,22.50
2023-03-11T10:50:54.649Z,22.50
2023-03-11T10:53:22.065Z,26.10
2023-03-11T10:55:54.152Z,25.90
2023-03-11T10:58:25.775Z,24.10
2023-03-11T11:01:14.175Z,25.50
2023-03-11T11:03:42.769Z,27.60
2023-03-11T11:06:25.088Z,25.70
2023-03-11T11:09:17.708Z,26.40
2023-03-11T11:12:01.809Z,30.80
2023-03-11T11:14:45.966Z,28.60
2023-03-11T11:17:32.972Z,29.10
2023-03-11T11:20:13.124Z,30.10
2023-03-11T11:22:40.963Z,32.80
2023-03-11T11:25:26.032Z,30.30
2023-03-11T11:28:01.378Z,33.90
2023-03-11T11:30:28.850Z,32.00
2023-03-11T11:33:21.621Z,36.10
2023-03-11T11:35:52.471Z,28.10
2023-03-11T11:40:51.270Z,28.70
2023-03-11T11:43:51.079Z,26.30
2023-03-11T11:46:25.334Z,25.20
2023-03-11T11:49:02.149Z,29.50
2023-03-11T11:51:57.865Z,24.70
2023-03-11T11:54:45.018Z,24.20
2023-03-11T11:57:15.055Z,22.30
2023-03-11T11:59:44.805Z,24.60
2023-03-11T12:02:34.278Z,19.60
2023-03-11T12:05:17.539Z,19.80
2023-03-11T12:08:05.570Z,18.80
2023-03-11T12:10:42.883Z,16.70
2023-03-11T12:13:27.134Z,14.10
2023-03-11T12:16:13.566Z,16.60
2023-03-11T12:18:52.134Z,13.80
2023-03-11T12:21:43.902Z,14.60
2023-03-11T12:24:42.131Z,13.40
2023-03-11T12:27:24.305Z,13.00
2023-03-11T12:30:01.003Z,12.90
2023-03-11T12:32:40.238Z,11.80
2023-03-11T12:35:27.901Z,11.90
2023-03-11T12:38:01.285Z,11.20
2023-03-11T12:40:58.739Z,9.30
2023-03-11T12:43:36.044Z,10.40
2023-03-11T12:46:04.545Z,9.60
2023-03-11T12:48:35.934Z,9.50
2023-03-11T12:51:03.456Z,8.80
2023-03-11T12:53:46.762Z,10.00
2023-03-11T12:56:26.089Z,9.10
2023-03-11T12:59:06.916Z,10.60
2023-03-11T13:01:52.406Z,10.80
2023-03-11T13:04:19.515Z,11.40
2023-03-11T13:06:57.954Z,11.60
2023-03-11T13:09:25.036Z,10.70
2023-03-11T13:11:52.561Z,14.00
2023-03-11T13:14:23.855Z,11.90
2023-03-11T13:16:51.441Z,11.70
2023-03-11T13:19:28.013Z,10.70
2023-03-11T13:21:55.311Z,10.70
2023-03-11T13:24:22.633Z,11.30
2023-03-11T13:27:04.994Z,12.80
2023-03-11T13:29:46.888Z,10.80
2023-03-11T13:32:35.437Z,11.40
2023-03-11T13:35:36.444Z,10.50
2023-03-11T13:38:34.404Z,11.10
2023-03-11T13:41:03.223Z,12.20
2023-03-11T13:43:31.867Z,10.40
2023-03-11T13:46:32.812Z,11.00
2023-03-11T13:49:24.791Z,9.50
2023-03-11T13:51:51.917Z,10.00
2023-03-11T13:54:39.284Z,9.10
2023-03-11T13:57:06.301Z,10.10
2023-03-11T13:59:38.089Z,10.70
2023-03-11T14:02:08.880Z,9.80
2023-03-11T14:04:37.655Z,7.80
2023-03-11T14:07:24.509Z,9.20
2023-03-11T14:10:09.952Z,9.60
2023-03-11T14:12:37.349Z,9.50
2023-03-11T14:15:05.859Z,9.00
2023-03-11T14:17:36.778Z,9.00
2023-03-11T14:20:07.149Z,8.90
2023-03-11T14:22:36.366Z,8.00
2023-03-11T14:25:09.500Z,8.00
2023-03-11T14:27:40.302Z,10.20
2023-03-11T14:30:09.446Z,12.00
2023-03-11T14:32:38.494Z,12.10
2023-03-11T14:35:19.482Z,9.00
2023-03-11T14:37:46.996Z,10.10
2023-03-11T14:40:26.561Z,9.70
2023-03-11T14:42:55.030Z,8.10
2023-03-11T14:45:25.132Z,9.80
2023-03-11T14:47:54.830Z,10.60
2023-03-11T14:50:24.429Z,9.20
2023-03-11T14:52:58.876Z,9.60
2023-03-11T14:55:31.823Z,8.60
2023-03-11T14:58:00.999Z,12.30
2023-03-11T15:00:29.879Z,10.50
2023-03-11T15:02:57.704Z,9.10
2023-03-11T15:05:34.398Z,8.30
2023-03-11T15:08:05.680Z,9.80
2023-03-11T15:10:34.220Z,9.20
2023-03-11T15:13:09.229Z,9.90
2023-03-11T15:15:36.448Z,9.30
2023-03-11T15:18:24.960Z,9.00
2023-03-11T15:21:14.339Z,12.60
2023-03-11T15:23:48.161Z,9.40
2023-03-11T15:26:25.919Z,10.80
2023-03-11T15:28:57.235Z,10.60
2023-03-11T15:31:25.135Z,10.50
2023-03-11T15:33:52.189Z,9.00
2023-03-11T15:36:32.586Z,10.60
2023-03-11T15:39:13.804Z,12.50
2023-03-11T15:41:42.204Z,12.00
2023-03-11T15:44:32.228Z,12.30
2023-03-11T15:47:02.493Z,15.00
2023-03-11T15:49:30.119Z,12.50
2023-03-11T15:52:00.874Z,13.60
2023-03-11T15:54:29.247Z,13.30
2023-03-11T15:56:57.053Z,15.20
2023-03-11T15:59:24.809Z,15.70
2023-03-11T16:01:51.978Z,17.30
2023-03-11T16:04:20.579Z,16.60
2023-03-11T16:07:02.975Z,14.30
2023-03-11T16:09:34.518Z,19.80
2023-03-11T16:12:02.291Z,16.50
2023-03-11T16:14:29.687Z,15.80
2023-03-11T16:17:00.706Z,19.80
2023-03-11T16:19:35.724Z,15.70
2023-03-11T16:22:03.777Z,22.30
2023-03-11T16:24:31.013Z,17.50
2023-03-11T16:26:58.243Z,15.20
2023-03-11T16:29:27.064Z,18.90
2023-03-11T16:31:55.804Z,17.70
2023-03-11T16:34:25.247Z,17.90
2023-03-11T16:36:52.723Z,18.70
2023-03-11T16:39:21.284Z,17.10
2023-03-11T16:41:49.330Z,16.30
2023-03-11T16:44:16.413Z,20.20
2023-03-11T16:46:44.555Z,22.90
2023-03-11T16:49:12.009Z,23.50
2023-03-11T16:51:39.158Z,19.20
2023-03-11T16:54:06.923Z,24.20
2023-03-11T16:56:35.595Z,26.60
2023-03-11T16:59:03.089Z,24.90
2023-03-11T17:01:30.816Z,22.60
2023-03-11T17:03:58.957Z,26.60
2023-03-11T17:06:26.507Z,23.80
2023-03-11T17:08:57.392Z,21.20
2023-03-11T17:11:30.735Z,18.30
2023-03-11T17:14:13.668Z,21.20
2023-03-11T17:16:43.455Z,21.60
2023-03-11T17:19:10.913Z,23.30
2023-03-11T17:21:38.776Z,18.80
2023-03-11T17:24:07.277Z,20.20
2023-03-11T17:26:35.266Z,22.20
2023-03-11T17:29:02.448Z,18.70
2023-03-11T17:31:29.875Z,16.70
2023-03-11T17:33:59.340Z,16.70
2023-03-11T17:36:27.344Z,20.00
2023-03-11T17:38:54.415Z,19.70
2023-03-11T17:41:21.913Z,17.70
2023-03-11T17:43:51.353Z,20.50
2023-03-11T17:46:19.856Z,18.10
2023-03-11T17:48:48.698Z,17.30
2023-03-11T17:51:19.811Z,18.00
2023-03-11T17:53:47.271Z,16.40
2023-03-11T17:56:16.184Z,16.20
2023-03-11T17:58:45.780Z,17.30
2023-03-11T18:01:15.120Z,17.10
2023-03-11T18:03:42.814Z,17.70
2023-03-11T18:06:10.439Z,17.00
2023-03-11T18:08:38.690Z,19.70
2023-03-11T18:11:09.668Z,20.30
2023-03-11T18:13:37.281Z,19.30
2023-03-11T18:16:06.728Z,19.70
2023-03-11T18:18:36.447Z,17.50
2023-03-11T18:21:17.365Z,18.70
2023-03-11T18:23:47.935Z,16.90
2023-03-11T18:26:17.494Z,18.60
2023-03-11T18:28:45.071Z,18.40
2023-03-11T18:31:17.011Z,19.60
2023-03-11T18:33:54.764Z,16.70
2023-03-11T18:36:23.672Z,16.40
2023-03-11T18:38:52.420Z,15.20
2023-03-11T18:41:21.135Z,16.10
2023-03-11T18:43:51.841Z,15.50
2023-03-11T18:46:19.774Z,16.40
2023-03-11T18:48:48.212Z,15.70
2023-03-11T18:51:16.238Z,18.40
2023-03-11T18:53:44.397Z,14.80
2023-03-11T18:56:17.156Z,12.60
2023-03-11T18:58:44.739Z,14.10
2023-03-11T19:01:18.952Z,15.60
2023-03-11T19:03:50.866Z,17.50
2023-03-11T19:06:18.453Z,13.90
2023-03-11T19:08:48.215Z,13.80
2023-03-11T19:11:19.500Z,15.60
2023-03-11T19:13:47.882Z,13.90
2023-03-11T19:16:21.415Z,13.60
2023-03-11T19:18:50.440Z,13.70
2023-03-11T19:21:18.409Z,12.90
2023-03-11T19:23:46.610Z,12.80
2023-03-11T19:26:14.381Z,12.00
2023-03-11T19:28:42.313Z,13.10
2023-03-11T19:31:11.624Z,14.60
2023-03-11T19:33:41.015Z,12.50
2023-03-11T19:36:09.073Z,11.30
2023-03-11T19:38:38.446Z,12.00
2023-03-11T19:41:07.693Z,12.00
2023-03-11T19:43:38.039Z,10.50
2023-03-11T19:46:06.223Z,12.50
2023-03-11T19:48:33.574Z,10.70
2023-03-11T19:51:07.815Z,10.60
2023-03-11T19:53:35.863Z,9.70
2023-03-11T19:56:09.141Z,11.40
2023-03-11T19:58:39.145Z,9.60
2023-03-11T20:01:06.427Z,12.10
2023-03-11T20:03:34.155Z,11.60
2023-03-11T20:06:05.547Z,11.50
2023-03-11T20:08:37.377Z,11.90
2023-03-11T20:11:06.041Z,10.70
2023-03-11T20:13:33.970Z,13.20
2023-03-11T20:16:09.069Z,11.10
2023-03-11T20:18:41.074Z,9.90
2023-03-11T20:21:12.955Z,12.20
2023-03-11T20:23:40.145Z,10.40
2023-03-11T20:26:12.507Z,11.00
2023-03-11T20:28:39.929Z,11.80
2023-03-11T20:31:12.981Z,10.90
2023-03-11T20:33:42.347Z,12.40
2023-03-11T20:36:11.586Z,12.40
2023-03-11T20:38:39.125Z,12.50
2023-03-11T20:41:08.166Z,12.90
2023-03-11T20:43:36.772Z,8.80
2023-03-11T20:46:06.191Z,11.30
2023-03-11T20:48:33.570Z,12.50
2023-03-11T20:51:02.174Z,10.60
2023-03-11T20:53:30.656Z,11.70
2023-03-11T20:56:06.215Z,10.40
2023-03-11T20:58:33.881Z,10.80
2023-03-11T21:01:26.123Z,12.10
2023-03-11T21:03:54.554Z,9.80
2023-03-11T21:06:26.863Z,10.50
2023-03-11T21:08:58.435Z,11.70
2023-03-11T21:11:25.988Z,11.00
2023-03-11T21:13:53.112Z,10.00
2023-03-11T21:19:10.279Z,13.00
2023-03-11T21:21:40.390Z,13.00
2023-03-11T21:24:07.883Z,14.70
2023-03-11T21:26:36.129Z,12.30
2023-03-11T21:29:06.630Z,10.70
2023-03-11T21:31:34.399Z,10.60
2023-03-11T21:34:02.368Z,9.50
2023-03-11T21:36:31.294Z,10.70
2023-03-11T21:38:59.932Z,12.30
2023-03-11T21:41:28.197Z,12.40
2023-03-11T21:43:56.269Z,9.20
2023-03-11T21:46:25.683Z,10.10
2023-03-11T21:48:57.455Z,11.30
2023-03-11T21:51:25.522Z,9.10
2023-03-11T21:53:53.333Z,12.90
2023-03-11T21:56:21.019Z,11.20
2023-03-11T21:58:50.003Z,9.40
2023-03-11T22:01:20.706Z,10.30
2023-03-11T22:03:48.665Z,12.20
2023-03-11T22:06:17.115Z,11.00
2023-03-11T22:08:44.705Z,11.00
2023-03-11T22:11:18.012Z,9.10
2023-03-11T22:13:49.470Z,14.50
2023-03-11T22:18:46.787Z,10.80
2023-03-11T22:21:15.656Z,9.80
2023-03-11T22:23:45.825Z,11.10
2023-03-11T22:26:15.022Z,9.60
2023-03-11T22:28:42.291Z,12.40
2023-03-11T22:31:10.856Z,10.70
2023-03-11T22:33:38.313Z,10.20
2023-03-11T22:36:07.796Z,9.80
2023-03-11T22:38:37.229Z,10.50
2023-03-11T22:41:06.981Z,10.40
2023-03-11T22:43:34.962Z,10.10
2023-03-11T22:46:02.473Z,9.40
2023-03-11T22:48:30.309Z,10.00
2023-03-11T22:51:00.779Z,10.50
2023-03-11T22:53:28.152Z,10.70
2023-03-11T22:55:55.564Z,11.20
2023-03-11T22:58:23.561Z,9.80
2023-03-11T23:00:50.643Z,11.70
2023-03-11T23:03:17.948Z,11.20
2023-03-11T23:05:46.977Z,11.90
2023-03-11T23:08:15.034Z,10.30
2023-03-11T23:10:46.515Z,11.50
2023-03-11T23:13:14.007Z,9.90
2023-03-11T23:15:42.770Z,11.60
2023-03-11T23:18:09.851Z,7.70
2023-03-11T23:20:38.546Z,9.80
2023-03-11T23:23:05.721Z,11.80
2023-03-11T23:25:34.473Z,9.90
2023-03-11T23:28:03.053Z,10.70
2023-03-11T23:30:30.272Z,10.10
2023-03-11T23:32:57.917Z,11.70
2023-03-11T23:35:25.189Z,10.10
2023-03-11T23:37:52.167Z,12.90
2023-03-11T23:40:19.274Z,8.90
2023-03-11T23:42:46.362Z,9.90
2023-03-11T23:45:16.289Z,10.50
2023-03-11T23:47:44.025Z,11.90
2023-03-11T23:50:12.142Z,11.50
2023-03-11T23:52:39.646Z,10.10
2023-03-11T23:55:07.400Z,10.60
2023-03-11T23:57:37.695Z,10.10
